createdAt,value
2023-01-20T00:01:11.411Z,3.67
2023-01-20T00:03:39.545Z,4.47
2023-01-20T00:06:08.015Z,4.00
2023-01-20T00:08:35.479Z,4.03
2023-01-20T00:11:06.217Z,3.37
2023-01-20T00:13:34.766Z,4.57
2023-01-20T00:21:09.388Z,3.40
2023-01-20T00:23:38.020Z,3.90
2023-01-20T00:26:06.990Z,4.03
2023-01-20T00:28:35.515Z,3.37
2023-01-20T00:31:14.439Z,3.87
2023-01-20T00:33:42.046Z,3.47
2023-01-20T00:36:11.482Z,4.37
2023-01-20T00:38:39.128Z,3.23
2023-01-20T00:46:11.800Z,4.00
2023-01-20T00:48:39.450Z,4.00
2023-01-20T00:51:07.702Z,4.07
2023-01-20T00:53:37.355Z,3.73
2023-01-20T00:56:05.468Z,3.70
2023-01-20T00:58:33.306Z,3.70
2023-01-20T01:01:01.194Z,3.97
2023-01-20T01:11:27.073Z,4.73
2023-01-20T01:13:56.912Z,4.30
2023-01-20T01:16:24.350Z,4.57
2023-01-20T01:18:55.919Z,4.17
2023-01-20T01:21:23.739Z,5.10
2023-01-20T01:23:53.593Z,4.23
2023-01-20T01:26:21.368Z,3.93
2023-01-20T01:28:51.099Z,4.83
2023-01-20T01:36:23.750Z,3.77
2023-01-20T01:38:57.662Z,3.93
2023-01-20T01:41:26.853Z,4.43
2023-01-20T01:44:07.263Z,3.87
2023-01-20T01:46:35.258Z,4.20
2023-01-20T01:49:06.178Z,4.23
2023-01-20T01:51:38.643Z,4.80
2023-01-20T01:54:12.680Z,3.93
2023-01-20T02:01:45.371Z,5.73
2023-01-20T02:04:15.320Z,4.87
2023-01-20T02:06:46.173Z,4.60
2023-01-20T02:09:14.202Z,4.93
2023-01-20T02:11:48.084Z,5.23
2023-01-20T02:14:18.018Z,5.20
2023-01-20T02:16:58.354Z,4.80
2023-01-20T02:22:36.819Z,4.53
2023-01-20T02:25:39.957Z,5.37
2023-01-20T02:28:36.805Z,4.57
2023-01-20T02:31:33.855Z,5.37
2023-01-20T02:34:05.319Z,4.27
2023-01-20T02:36:37.851Z,5.17
2023-01-20T02:39:13.896Z,6.03
2023-01-20T02:47:08.769Z,6.27
2023-01-20T02:49:40.380Z,6.77
2023-01-20T02:52:12.420Z,5.87
2023-01-20T02:54:43.818Z,6.10
2023-01-20T02:57:14.721Z,5.73
2023-01-20T02:59:46.481Z,6.90
2023-01-20T03:02:18.289Z,6.03
2023-01-20T03:04:49.198Z,7.40
2023-01-20T03:13:14.461Z,6.67
2023-01-20T03:15:54.071Z,6.60
2023-01-20T03:18:21.535Z,7.40
2023-01-20T03:20:48.724Z,7.30
2023-01-20T03:23:16.253Z,7.17
2023-01-20T03:25:46.237Z,7.10
2023-01-20T03:28:15.142Z,6.57
2023-01-20T03:30:43.137Z,6.53
2023-01-20T03:38:14.646Z,7.07
2023-01-20T03:40:47.635Z,8.50
2023-01-20T03:43:21.627Z,6.60
2023-01-20T03:45:56.029Z,7.23
2023-01-20T03:48:31.602Z,7.67
2023-01-20T03:51:06.584Z,6.57
2023-01-20T03:53:44.720Z,6.93
2023-01-20T03:58:56.517Z,7.03
2023-01-20T04:01:27.450Z,7.53
2023-01-20T04:03:56.231Z,7.63
2023-01-20T04:06:27.426Z,7.50
2023-01-20T04:08:58.850Z,7.67
2023-01-20T04:11:26.671Z,7.20
2023-01-20T04:13:55.726Z,8.20
2023-01-20T04:22:21.198Z,8.53
2023-01-20T04:24:53.461Z,8.43
2023-01-20T04:27:21.357Z,7.43
2023-01-20T04:29:49.258Z,8.00
2023-01-20T04:32:16.513Z,8.93
2023-01-20T04:34:43.796Z,7.40
2023-01-20T04:37:11.502Z,7.83
2023-01-20T04:45:31.752Z,7.73
2023-01-20T04:48:00.231Z,7.70
2023-01-20T04:50:27.341Z,8.90
2023-01-20T04:52:56.443Z,9.77
2023-01-20T04:55:25.884Z,7.83
2023-01-20T04:57:53.216Z,8.43
2023-01-20T05:00:20.663Z,7.10
2023-01-20T05:02:49.729Z,8.40
2023-01-20T05:10:22.562Z,7.87
2023-01-20T05:12:49.777Z,8.63
2023-01-20T05:15:17.759Z,9.47
2023-01-20T05:17:45.561Z,9.00
2023-01-20T05:20:13.937Z,8.23
2023-01-20T05:22:41.505Z,8.37
2023-01-20T05:25:10.619Z,7.53
2023-01-20T05:32:45.312Z,8.93
2023-01-20T05:35:13.120Z,9.40
2023-01-20T05:37:40.665Z,7.73
2023-01-20T05:40:12.451Z,8.83
2023-01-20T05:42:39.970Z,9.80
2023-01-20T05:45:09.166Z,8.83
2023-01-20T05:47:37.437Z,8.20
2023-01-20T05:50:08.436Z,8.63
2023-01-20T05:57:40.766Z,8.30
2023-01-20T06:00:09.509Z,9.63
2023-01-20T06:02:39.940Z,8.87
2023-01-20T06:05:08.401Z,7.83
2023-01-20T06:07:36.088Z,9.10
2023-01-20T06:10:04.120Z,9.07
2023-01-20T06:12:31.700Z,8.83
2023-01-20T06:14:59.984Z,6.97
2023-01-20T06:22:34.891Z,8.70
2023-01-20T06:25:02.379Z,9.53
2023-01-20T06:27:30.350Z,7.97
2023-01-20T06:29:57.649Z,7.83
2023-01-20T06:32:24.997Z,8.43
2023-01-20T06:34:52.528Z,8.83
2023-01-20T06:37:20.107Z,6.83
2023-01-20T06:39:49.572Z,9.23
2023-01-20T06:47:22.343Z,7.03
2023-01-20T06:49:49.908Z,6.83
2023-01-20T06:52:17.357Z,6.17
2023-01-20T06:54:44.964Z,6.43
2023-01-20T06:57:12.857Z,6.23
2023-01-20T06:59:40.398Z,8.33
2023-01-20T07:02:09.353Z,7.30
2023-01-20T07:07:18.468Z,7.23
2023-01-20T07:09:47.976Z,7.60
2023-01-20T07:12:15.306Z,7.73
2023-01-20T07:14:45.238Z,6.97
2023-01-20T07:17:13.301Z,6.80
2023-01-20T07:19:40.806Z,6.40
2023-01-20T07:22:08.297Z,6.03
2023-01-20T07:32:47.720Z,6.47
2023-01-20T07:35:15.965Z,5.80
2023-01-20T07:37:43.987Z,6.10
2023-01-20T07:40:12.540Z,5.40
2023-01-20T07:42:40.468Z,6.67
2023-01-20T07:45:09.553Z,5.50
2023-01-20T07:47:37.403Z,5.20
2023-01-20T07:50:07.206Z,5.63
2023-01-20T07:55:30.635Z,5.03
2023-01-20T07:57:59.023Z,5.43
2023-01-20T08:00:26.305Z,4.57
2023-01-20T08:02:54.380Z,5.77
2023-01-20T08:05:22.664Z,5.50
2023-01-20T08:07:53.489Z,4.77
2023-01-20T08:10:20.779Z,5.00
2023-01-20T08:12:49.047Z,5.10
2023-01-20T08:18:01.111Z,4.43
2023-01-20T08:20:29.553Z,3.60
2023-01-20T08:22:57.086Z,4.83
2023-01-20T08:25:25.430Z,4.27
2023-01-20T08:27:53.435Z,5.63
2023-01-20T08:30:21.838Z,4.30
2023-01-20T08:32:49.202Z,5.00
2023-01-20T08:41:12.711Z,5.47
2023-01-20T08:43:40.199Z,6.77
2023-01-20T08:46:10.147Z,6.13
2023-01-20T08:48:38.854Z,5.40
2023-01-20T08:51:08.384Z,6.60
2023-01-20T08:53:36.166Z,6.63
2023-01-20T08:56:04.192Z,7.47
2023-01-20T08:58:33.190Z,6.83
2023-01-20T09:06:08.236Z,6.70
2023-01-20T09:08:36.963Z,6.70
2023-01-20T09:11:05.562Z,7.60
2023-01-20T09:13:33.469Z,6.20
2023-01-20T09:16:00.869Z,7.50
2023-01-20T09:18:29.019Z,6.90
2023-01-20T09:20:58.239Z,7.13
2023-01-20T09:26:41.331Z,5.53
2023-01-20T09:29:11.928Z,6.33
2023-01-20T09:31:44.992Z,5.37
2023-01-20T09:34:18.500Z,5.13
2023-01-20T09:36:46.317Z,6.57
2023-01-20T09:39:32.794Z,4.80
2023-01-20T09:42:29.109Z,4.40
2023-01-20T09:50:35.568Z,4.13
2023-01-20T09:53:14.880Z,3.63
2023-01-20T09:55:49.231Z,4.17
2023-01-20T09:58:25.088Z,3.23
2023-01-20T10:00:57.964Z,3.93
2023-01-20T10:03:36.447Z,4.13
2023-01-20T10:06:13.058Z,4.10
2023-01-20T10:13:50.929Z,4.70
2023-01-20T10:16:28.497Z,4.73
2023-01-20T10:19:00.996Z,3.87
2023-01-20T10:21:38.653Z,4.77
2023-01-20T10:24:13.671Z,4.53
2023-01-20T10:26:47.600Z,3.97
2023-01-20T10:29:24.067Z,4.30
2023-01-20T10:37:23.569Z,4.00
2023-01-20T10:39:55.468Z,4.50
2023-01-20T10:42:24.276Z,4.37
2023-01-20T10:44:52.850Z,4.00
2023-01-20T10:47:30.753Z,2.90
2023-01-20T10:50:22.547Z,3.43
2023-01-20T10:53:22.590Z,4.13
2023-01-20T11:01:02.296Z,4.57
2023-01-20T11:03:34.494Z,5.30
2023-01-20T11:06:03.752Z,4.77
2023-01-20T11:08:31.164Z,4.83
2023-01-20T11:11:01.747Z,4.83
2023-01-20T11:13:30.550Z,5.47
2023-01-20T11:16:03.057Z,4.87
2023-01-20T11:26:23.827Z,7.50
2023-01-20T11:28:54.557Z,7.90
2023-01-20T11:34:30.670Z,8.53
2023-01-20T11:37:19.711Z,9.50
2023-01-20T11:40:02.550Z,8.60
2023-01-20T11:42:44.679Z,10.30
2023-01-20T11:50:35.555Z,10.90
2023-01-20T11:53:20.750Z,9.83
2023-01-20T11:55:51.570Z,9.93
2023-01-20T11:58:21.025Z,11.13
2023-01-20T12:00:51.540Z,10.17
2023-01-20T12:03:51.829Z,9.43
2023-01-20T12:06:25.678Z,11.00
2023-01-20T12:08:56.570Z,10.10
2023-01-20T12:16:34.886Z,11.30
2023-01-20T12:19:06.953Z,9.67
2023-01-20T12:21:37.854Z,10.83
2023-01-20T12:24:13.595Z,10.60
2023-01-20T12:26:41.020Z,10.30
2023-01-20T12:29:32.662Z,12.17
2023-01-20T12:32:06.927Z,11.07
2023-01-20T12:34:35.032Z,11.67
2023-01-20T12:42:29.940Z,10.97
2023-01-20T12:45:00.087Z,11.27
2023-01-20T12:47:39.802Z,11.30
2023-01-20T12:50:28.769Z,11.47
2023-01-20T12:53:17.020Z,12.37
2023-01-20T12:55:59.770Z,12.70
2023-01-20T13:04:55.806Z,12.73
2023-01-20T13:07:50.249Z,13.30
2023-01-20T13:10:39.153Z,14.73
2023-01-20T13:13:19.398Z,14.17
2023-01-20T13:15:56.089Z,13.77
2023-01-20T13:18:32.255Z,14.17
2023-01-20T13:21:01.304Z,14.73
2023-01-20T13:28:42.239Z,16.70
2023-01-20T13:31:34.174Z,14.37
2023-01-20T13:34:35.221Z,16.67
2023-01-20T13:37:28.640Z,15.03
2023-01-20T13:39:59.379Z,14.90
2023-01-20T13:42:46.045Z,15.80
2023-01-20T13:53:28.130Z,15.73
2023-01-20T13:56:01.293Z,16.40
2023-01-20T13:58:31.468Z,14.60
2023-01-20T14:01:02.229Z,16.67
2023-01-20T14:03:32.554Z,16.50
2023-01-20T14:06:02.530Z,14.70
2023-01-20T14:08:42.639Z,14.10
2023-01-20T14:11:18.300Z,15.60
2023-01-20T14:18:57.600Z,13.53
2023-01-20T14:21:27.430Z,14.40
2023-01-20T14:23:55.289Z,11.90
2023-01-20T14:26:26.891Z,13.60
2023-01-20T14:28:58.477Z,13.07
2023-01-20T14:31:46.204Z,13.17
2023-01-20T14:34:26.783Z,13.20
2023-01-20T14:39:34.939Z,13.87
2023-01-20T14:42:06.224Z,12.33
2023-01-20T14:44:34.004Z,13.50
2023-01-20T14:47:04.784Z,14.07
2023-01-20T14:49:39.456Z,14.77
2023-01-20T14:52:11.068Z,13.83
2023-01-20T14:54:45.689Z,13.93
2023-01-20T14:57:30.922Z,11.87
2023-01-20T15:05:37.904Z,12.23
2023-01-20T15:08:25.348Z,12.03
2023-01-20T15:11:24.846Z,13.03
2023-01-20T15:14:13.214Z,13.47
2023-01-20T15:17:00.742Z,13.33
2023-01-20T15:19:36.838Z,12.77
2023-01-20T15:22:23.560Z,14.50
2023-01-20T15:30:18.786Z,15.57
2023-01-20T15:32:49.159Z,16.77
2023-01-20T15:35:19.580Z,18.60
2023-01-20T15:37:52.742Z,15.63
2023-01-20T15:40:23.203Z,15.23
2023-01-20T15:42:53.453Z,17.03
2023-01-20T15:45:26.397Z,17.03
2023-01-20T15:53:33.485Z,17.60
2023-01-20T15:56:03.355Z,16.17
2023-01-20T15:58:37.505Z,17.27
2023-01-20T16:01:05.728Z,18.07
2023-01-20T16:03:36.279Z,17.93
2023-01-20T16:06:04.316Z,17.57
2023-01-20T16:08:39.632Z,21.63
2023-01-20T16:14:13.448Z,21.00
2023-01-20T16:16:44.882Z,21.83
2023-01-20T16:19:16.388Z,22.00
2023-01-20T16:21:49.768Z,22.53
2023-01-20T16:24:17.905Z,22.77
2023-01-20T16:26:51.169Z,24.97
2023-01-20T16:29:22.819Z,23.30
2023-01-20T16:31:54.106Z,24.27
2023-01-20T16:39:33.794Z,22.83
2023-01-20T16:42:12.740Z,21.57
2023-01-20T16:44:52.275Z,22.20
2023-01-20T16:47:32.447Z,22.67
2023-01-20T16:50:05.368Z,21.33
2023-01-20T16:52:38.394Z,21.67
2023-01-20T16:55:13.714Z,22.17
2023-01-20T17:02:52.362Z,23.90
2023-01-20T17:05:26.528Z,21.40
2023-01-20T17:08:00.363Z,19.67
2023-01-20T17:10:33.573Z,21.10
2023-01-20T17:13:01.205Z,21.77
2023-01-20T17:15:29.081Z,20.33
2023-01-20T17:17:59.957Z,19.83
2023-01-20T17:20:33.999Z,21.07
2023-01-20T17:25:45.004Z,19.93
2023-01-20T17:28:13.707Z,18.27
2023-01-20T17:30:43.388Z,18.00
2023-01-20T17:33:14.649Z,18.63
2023-01-20T17:35:43.248Z,22.03
2023-01-20T17:38:11.927Z,20.43
2023-01-20T17:40:39.162Z,20.97
2023-01-20T17:45:48.008Z,20.83
2023-01-20T17:48:18.536Z,20.50
2023-01-20T17:50:48.609Z,18.43
2023-01-20T17:53:17.605Z,20.37
2023-01-20T17:55:51.890Z,20.37
2023-01-20T17:58:22.476Z,19.40
2023-01-20T18:00:53.736Z,19.93
2023-01-20T18:08:27.877Z,24.17
2023-01-20T18:10:56.435Z,19.83
2023-01-20T18:13:24.093Z,22.40
2023-01-20T18:15:55.600Z,25.30
2023-01-20T18:18:23.648Z,21.77
2023-01-20T18:20:52.908Z,22.63
2023-01-20T18:23:21.516Z,23.23
2023-01-20T18:28:50.038Z,23.43
2023-01-20T18:31:21.272Z,21.87
2023-01-20T18:33:56.060Z,21.23
2023-01-20T18:36:27.829Z,20.23
2023-01-20T18:38:59.540Z,19.27
2023-01-20T18:41:32.586Z,19.47
2023-01-20T18:44:03.072Z,19.30
2023-01-20T18:49:20.139Z,19.60
2023-01-20T18:51:52.757Z,18.53
2023-01-20T18:54:36.025Z,18.13
2023-01-20T18:57:05.076Z,17.37
2023-01-20T18:59:34.967Z,18.03
2023-01-20T19:02:41.645Z,16.30
2023-01-20T19:05:16.476Z,17.53
2023-01-20T19:12:56.013Z,16.10
2023-01-20T19:15:25.686Z,18.80
2023-01-20T19:17:55.854Z,17.37
2023-01-20T19:20:23.992Z,16.33
2023-01-20T19:22:55.229Z,15.83
2023-01-20T19:25:29.843Z,14.33
2023-01-20T19:28:01.588Z,15.83
2023-01-20T19:33:23.878Z,15.63
2023-01-20T19:35:52.576Z,14.10
2023-01-20T19:38:21.673Z,15.73
2023-01-20T19:40:56.447Z,15.47
2023-01-20T19:43:27.071Z,14.23
2023-01-20T19:45:56.142Z,15.07
2023-01-20T19:48:29.480Z,15.73
2023-01-20T19:51:01.651Z,13.73
2023-01-20T19:58:35.992Z,12.57
2023-01-20T20:01:08.518Z,11.47
2023-01-20T20:03:37.611Z,12.20
2023-01-20T20:06:09.728Z,11.20
2023-01-20T20:08:38.580Z,11.77
2023-01-20T20:11:12.561Z,11.87
2023-01-20T20:16:32.234Z,11.03
2023-01-20T20:19:03.178Z,11.67
2023-01-20T20:21:32.360Z,11.70
2023-01-20T20:24:05.512Z,10.63
2023-01-20T20:26:36.576Z,12.33
2023-01-20T20:29:08.542Z,9.97
2023-01-20T20:31:39.592Z,8.67
2023-01-20T20:41:12.409Z,8.63
2023-01-20T20:43:41.166Z,7.87
2023-01-20T20:46:09.501Z,8.83
2023-01-20T20:48:38.188Z,10.70
2023-01-20T20:51:08.745Z,10.97
2023-01-20T20:53:40.120Z,8.60
2023-01-20T20:56:09.316Z,8.97
2023-01-20T21:01:33.455Z,10.10
2023-01-20T21:04:05.051Z,9.40
2023-01-20T21:06:35.376Z,8.83
2023-01-20T21:09:04.304Z,9.30
2023-01-20T21:11:33.384Z,10.47
2023-01-20T21:14:03.434Z,8.43
2023-01-20T21:16:33.899Z,9.37
2023-01-20T21:22:00.342Z,9.77
2023-01-20T21:24:34.489Z,10.47
2023-01-20T21:27:03.913Z,7.70
2023-01-20T21:29:31.984Z,7.40
2023-01-20T21:32:00.379Z,6.53
2023-01-20T21:34:30.683Z,6.53
2023-01-20T21:36:59.466Z,6.47
2023-01-20T21:39:26.842Z,6.30
2023-01-20T21:47:02.739Z,6.07
2023-01-20T21:49:47.784Z,5.40
2023-01-20T21:52:36.014Z,5.03
2023-01-20T21:55:06.560Z,5.10
2023-01-20T21:57:34.488Z,6.63
2023-01-20T22:00:04.869Z,7.17
2023-01-20T22:02:33.299Z,6.47
2023-01-20T22:10:09.269Z,5.50
2023-01-20T22:12:37.351Z,6.57
2023-01-20T22:15:06.717Z,5.57
2023-01-20T22:17:34.073Z,5.17
2023-01-20T22:20:01.376Z,7.00
2023-01-20T22:22:29.541Z,7.33
2023-01-20T22:24:58.805Z,6.67
2023-01-20T22:32:38.678Z,7.23
2023-01-20T22:35:15.245Z,8.23
2023-01-20T22:37:47.508Z,12.40
2023-01-20T22:40:26.882Z,8.20
2023-01-20T22:43:11.780Z,6.17
2023-01-20T22:45:54.414Z,6.60
2023-01-20T22:48:23.495Z,6.87
2023-01-20T22:55:24.307Z,10.53
2023-01-20T22:57:52.451Z,8.90
2023-01-20T23:00:24.164Z,8.00
2023-01-20T23:02:52.711Z,7.33
2023-01-20T23:05:20.647Z,7.00
2023-01-20T23:07:49.781Z,7.87
2023-01-20T23:10:33.408Z,7.90
2023-01-20T23:13:02.014Z,5.70
2023-01-20T23:20:34.790Z,8.03
2023-01-20T23:23:02.831Z,5.87
2023-01-20T23:25:30.689Z,5.43
2023-01-20T23:27:58.410Z,5.30
2023-01-20T23:30:26.614Z,5.73
2023-01-20T23:32:54.047Z,6.10
2023-01-20T23:35:22.108Z,9.83
2023-01-20T23:37:50.960Z,8.37
2023-01-20T23:40:19.160Z,10.17
2023-01-20T23:47:52.617Z,9.93
2023-01-20T23:50:20.116Z,9.30
2023-01-20T23:52:47.473Z,10.77
2023-01-20T23:55:15.076Z,9.60
2023-01-20T23:57:43.299Z,9.10
